createdAt,value
2023-01-29T00:02:12.980Z,101206.14
2023-01-29T00:04:40.822Z,101210.52
2023-01-29T00:07:08.680Z,101217.21
2023-01-29T00:09:36.876Z,101213.38
2023-01-29T00:12:04.845Z,101205.20
2023-01-29T00:14:32.639Z,101201.59
2023-01-29T00:17:00.544Z,101198.15
2023-01-29T00:19:28.366Z,101188.61
2023-01-29T00:21:56.235Z,101187.64
2023-01-29T00:24:23.973Z,101189.52
2023-01-29T00:26:52.255Z,101182.26
2023-01-29T00:29:21.951Z,101184.04
2023-01-29T00:31:49.988Z,101175.11
2023-01-29T00:34:17.934Z,101172.44
2023-01-29T00:36:46.385Z,101161.89
2023-01-29T00:39:14.310Z,101170.59
2023-01-29T00:42:00.744Z,101174.61
2023-01-29T00:44:47.091Z,101163.01
2023-01-29T00:47:30.757Z,101164.33
2023-01-29T00:50:00.002Z,101164.79
2023-01-29T00:52:28.794Z,101172.95
2023-01-29T00:54:58.818Z,101175.90
2023-01-29T00:57:28.936Z,101170.35
2023-01-29T00:59:57.191Z,101168.73
2023-01-29T01:02:44.565Z,101174.43
2023-01-29T01:05:17.792Z,101173.52
2023-01-29T01:07:51.997Z,101171.43
2023-01-29T01:10:30.125Z,101160.73
2023-01-29T01:13:04.914Z,101152.42
2023-01-29T01:15:40.523Z,101152.48
2023-01-29T01:18:08.418Z,101148.58
2023-01-29T01:20:37.125Z,101144.52
2023-01-29T01:23:05.425Z,101136.23
2023-01-29T01:25:33.896Z,101128.44
2023-01-29T01:28:01.856Z,101122.63
2023-01-29T01:30:29.944Z,101123.59
2023-01-29T01:32:58.190Z,101122.55
2023-01-29T01:35:26.105Z,101126.66
2023-01-29T01:37:53.919Z,101127.71
2023-01-29T01:40:24.662Z,101122.53
2023-01-29T01:42:58.070Z,101121.86
2023-01-29T01:45:30.396Z,101119.38
2023-01-29T01:48:17.258Z,101116.80
2023-01-29T01:50:58.819Z,101115.09
2023-01-29T01:53:35.108Z,101113.62
2023-01-29T01:56:08.322Z,101114.96
2023-01-29T01:58:43.632Z,101115.63
2023-01-29T02:01:12.821Z,101110.02
2023-01-29T02:04:08.405Z,101114.22
2023-01-29T02:06:58.186Z,101113.20
2023-01-29T02:09:43.461Z,101115.25
2023-01-29T02:12:13.318Z,101115.30
2023-01-29T02:14:42.443Z,101110.87
2023-01-29T02:17:15.376Z,101117.95
2023-01-29T02:20:01.377Z,101118.20
2023-01-29T02:22:33.348Z,101124.26
2023-01-29T02:25:13.992Z,101124.25
2023-01-29T02:28:10.178Z,101119.32
2023-01-29T02:30:45.462Z,101108.45
2023-01-29T02:33:31.490Z,101111.17
2023-01-29T02:36:05.692Z,101114.73
2023-01-29T02:38:47.375Z,101123.30
2023-01-29T02:41:28.736Z,101117.24
2023-01-29T02:44:13.375Z,101107.16
2023-01-29T02:46:51.037Z,101109.38
2023-01-29T02:49:33.478Z,101105.34
2023-01-29T02:52:23.413Z,101103.44
2023-01-29T02:55:20.395Z,101099.91
2023-01-29T02:58:01.997Z,101093.59
2023-01-29T03:00:40.431Z,101094.47
2023-01-29T03:03:33.397Z,101094.91
2023-01-29T03:06:20.526Z,101094.88
2023-01-29T03:09:05.413Z,101092.64
2023-01-29T03:11:50.415Z,101096.05
2023-01-29T03:15:00.627Z,101090.60
2023-01-29T03:17:38.432Z,101086.52
2023-01-29T03:20:15.808Z,101084.14
2023-01-29T03:22:53.406Z,101077.86
2023-01-29T03:25:45.601Z,101074.27
2023-01-29T03:28:38.559Z,101068.76
2023-01-29T03:31:31.517Z,101071.27
2023-01-29T03:34:28.421Z,101070.05
2023-01-29T03:37:08.451Z,101067.45
2023-01-29T03:39:39.359Z,101069.16
2023-01-29T03:42:39.433Z,101065.91
2023-01-29T03:45:22.511Z,101065.30
2023-01-29T03:48:51.443Z,101067.02
2023-01-29T03:51:37.461Z,101066.85
2023-01-29T04:01:51.337Z,101073.52
2023-01-29T04:04:27.011Z,101078.41
2023-01-29T04:07:02.029Z,101076.87
2023-01-29T04:09:43.802Z,101073.73
2023-01-29T04:12:16.087Z,101069.16
2023-01-29T04:14:46.540Z,101062.52
2023-01-29T04:17:19.508Z,101059.66
2023-01-29T04:19:56.042Z,101062.15
2023-01-29T04:22:31.311Z,101057.33
2023-01-29T04:25:02.869Z,101056.42
2023-01-29T04:27:49.668Z,101059.08
2023-01-29T04:30:24.567Z,101057.46
2023-01-29T04:33:04.506Z,101053.46
2023-01-29T04:35:39.853Z,101047.14
2023-01-29T04:38:16.651Z,101040.31
2023-01-29T04:41:06.856Z,101034.48
2023-01-29T04:44:24.799Z,101037.60
2023-01-29T04:46:57.772Z,101039.74
2023-01-29T04:49:41.021Z,101037.74
2023-01-29T04:52:11.500Z,101032.31
2023-01-29T04:54:58.135Z,101034.44
2023-01-29T04:57:33.507Z,101035.86
2023-01-29T05:00:13.910Z,101030.77
2023-01-29T05:02:44.902Z,101027.30
2023-01-29T05:05:14.843Z,101026.94
2023-01-29T05:07:44.205Z,101017.89
2023-01-29T05:10:15.235Z,101016.56
2023-01-29T05:12:47.766Z,101018.89
2023-01-29T05:15:20.336Z,101018.79
2023-01-29T05:17:48.466Z,101019.87
2023-01-29T05:20:16.820Z,101018.17
2023-01-29T05:22:46.888Z,101025.34
2023-01-29T05:25:30.445Z,101031.31
2023-01-29T05:28:05.567Z,101028.73
2023-01-29T05:30:36.097Z,101027.03
2023-01-29T05:33:05.222Z,101026.89
2023-01-29T05:35:33.259Z,101025.85
2023-01-29T05:38:01.083Z,101024.48
2023-01-29T05:40:28.917Z,101016.84
2023-01-29T05:42:56.928Z,101008.80
2023-01-29T05:45:25.304Z,101005.54
2023-01-29T05:48:00.137Z,101002.44
2023-01-29T05:50:28.040Z,101000.70
2023-01-29T05:52:57.621Z,101002.19
2023-01-29T05:55:26.192Z,100999.39
2023-01-29T05:57:54.068Z,100994.91
2023-01-29T06:00:22.042Z,100997.13
2023-01-29T06:02:50.521Z,100999.65
2023-01-29T06:05:18.607Z,100999.67
2023-01-29T06:07:47.261Z,100999.71
2023-01-29T06:10:17.903Z,101003.72
2023-01-29T06:12:46.202Z,101005.68
2023-01-29T06:15:19.804Z,101001.25
2023-01-29T06:17:47.621Z,101000.79
2023-01-29T06:20:15.819Z,101005.34
2023-01-29T06:22:43.879Z,101009.50
2023-01-29T06:25:12.149Z,101014.30
2023-01-29T06:27:40.046Z,101017.52
2023-01-29T06:30:08.801Z,101013.83
2023-01-29T06:32:36.758Z,101004.00
2023-01-29T06:35:05.464Z,101005.75
2023-01-29T06:37:33.454Z,101008.13
2023-01-29T06:40:01.501Z,101012.55
2023-01-29T06:42:29.396Z,101015.08
2023-01-29T06:44:57.970Z,101015.94
2023-01-29T06:47:27.955Z,101015.51
2023-01-29T06:49:55.837Z,101015.66
2023-01-29T06:52:25.444Z,101014.52
2023-01-29T06:54:53.324Z,101006.59
2023-01-29T06:57:21.277Z,101013.83
2023-01-29T06:59:49.240Z,101016.20
2023-01-29T07:02:17.511Z,101016.99
2023-01-29T07:04:45.496Z,101013.77
2023-01-29T07:07:13.494Z,101015.80
2023-01-29T07:09:42.310Z,101021.09
2023-01-29T07:12:11.348Z,101018.27
2023-01-29T07:14:39.190Z,101018.58
2023-01-29T07:17:07.109Z,101009.20
2023-01-29T07:19:35.027Z,100999.63
2023-01-29T07:22:04.102Z,100991.73
2023-01-29T07:24:32.865Z,100990.45
2023-01-29T07:27:00.889Z,100978.11
2023-01-29T07:29:29.113Z,100987.23
2023-01-29T07:31:57.031Z,100986.94
2023-01-29T07:34:25.081Z,100992.37
2023-01-29T07:36:54.046Z,100996.20
2023-01-29T07:39:21.871Z,100993.17
2023-01-29T07:41:49.689Z,100989.28
2023-01-29T07:44:17.632Z,100993.71
2023-01-29T07:46:45.457Z,100998.20
2023-01-29T07:49:13.533Z,101003.33
2023-01-29T07:51:41.705Z,101007.64
2023-01-29T07:54:09.558Z,101009.05
2023-01-29T07:56:37.391Z,101012.05
2023-01-29T07:59:05.317Z,101008.95
2023-01-29T08:01:33.246Z,101005.71
2023-01-29T08:04:01.009Z,101009.13
2023-01-29T08:06:28.812Z,101005.58
2023-01-29T08:08:57.593Z,101000.13
2023-01-29T08:11:25.572Z,100990.09
2023-01-29T08:13:54.579Z,100986.33
2023-01-29T08:16:22.355Z,100976.02
2023-01-29T08:18:50.273Z,100978.48
2023-01-29T08:21:18.043Z,100984.33
2023-01-29T08:23:45.839Z,100985.07
2023-01-29T08:26:13.670Z,100986.27
2023-01-29T08:28:41.623Z,100977.70
2023-01-29T08:31:16.973Z,100975.76
2023-01-29T08:33:44.812Z,100970.90
2023-01-29T08:36:13.139Z,100974.83
2023-01-29T08:38:40.957Z,100973.89
2023-01-29T08:41:08.777Z,100975.95
2023-01-29T08:43:40.821Z,100972.55
2023-01-29T08:46:08.814Z,100969.21
2023-01-29T08:48:36.994Z,100969.20
2023-01-29T08:51:05.467Z,100971.79
2023-01-29T08:53:33.453Z,100973.90
2023-01-29T08:56:01.597Z,100972.13
2023-01-29T08:58:29.412Z,100970.23
2023-01-29T09:00:57.289Z,100967.30
2023-01-29T09:03:25.160Z,100965.75
2023-01-29T09:05:52.995Z,100963.58
2023-01-29T09:08:20.936Z,100964.17
2023-01-29T09:10:48.745Z,100957.76
2023-01-29T09:13:16.570Z,100958.29
2023-01-29T09:15:44.515Z,100957.70
2023-01-29T09:18:12.329Z,100952.12
2023-01-29T09:20:40.100Z,100947.03
2023-01-29T09:23:10.366Z,100939.30
2023-01-29T09:25:38.458Z,100932.44
2023-01-29T09:28:06.426Z,100921.20
2023-01-29T09:30:37.752Z,100914.63
2023-01-29T09:33:07.214Z,100903.91
2023-01-29T09:35:35.131Z,100903.58
2023-01-29T09:38:03.166Z,100893.02
2023-01-29T09:40:38.753Z,100897.16
2023-01-29T09:43:20.747Z,100899.12
2023-01-29T09:46:15.218Z,100902.23
2023-01-29T09:48:46.013Z,100896.73
2023-01-29T09:51:28.531Z,100891.30
2023-01-29T09:54:14.670Z,100893.53
2023-01-29T09:56:45.778Z,100895.94
2023-01-29T09:59:17.345Z,100890.73
2023-01-29T10:01:56.148Z,100885.30
2023-01-29T10:04:52.136Z,100880.63
2023-01-29T10:07:35.251Z,100875.52
2023-01-29T10:10:19.082Z,100871.13
2023-01-29T10:13:19.480Z,100866.34
2023-01-29T10:16:13.280Z,100867.59
2023-01-29T10:19:10.132Z,100868.30
2023-01-29T10:22:01.042Z,100864.91
2023-01-29T10:24:46.030Z,100855.95
2023-01-29T10:27:16.915Z,100850.52
2023-01-29T10:29:48.051Z,100853.18
2023-01-29T10:32:18.841Z,100847.20
2023-01-29T10:34:52.012Z,100845.48
2023-01-29T10:37:24.412Z,100842.34
2023-01-29T10:39:52.390Z,100838.23
2023-01-29T10:42:34.509Z,100840.96
2023-01-29T10:45:49.623Z,100842.13
2023-01-29T10:48:41.241Z,100842.80
2023-01-29T10:51:21.501Z,100842.61
2023-01-29T10:54:14.982Z,100837.94
2023-01-29T10:56:53.412Z,100834.15
2023-01-29T10:59:35.083Z,100830.76
2023-01-29T11:02:03.558Z,100828.59
2023-01-29T11:04:32.132Z,100827.23
2023-01-29T11:07:00.529Z,100828.27
2023-01-29T11:09:51.548Z,100828.45
2023-01-29T11:12:26.734Z,100820.39
2023-01-29T11:14:57.392Z,100816.27
2023-01-29T11:17:26.371Z,100809.23
2023-01-29T11:19:56.087Z,100805.95
2023-01-29T11:22:29.070Z,100806.33
2023-01-29T11:25:11.418Z,100807.69
2023-01-29T11:27:44.599Z,100803.44
2023-01-29T11:30:25.722Z,100794.29
2023-01-29T11:33:19.603Z,100793.18
2023-01-29T11:35:47.629Z,100793.44
2023-01-29T11:38:27.167Z,100787.56
2023-01-29T11:41:22.421Z,100775.64
2023-01-29T11:43:50.258Z,100770.00
2023-01-29T11:46:18.078Z,100765.84
2023-01-29T11:48:50.232Z,100759.17
2023-01-29T11:51:27.396Z,100750.78
2023-01-29T11:53:59.317Z,100750.24
2023-01-29T11:56:51.764Z,100745.27
2023-01-29T11:59:48.623Z,100747.95
2023-01-29T12:02:26.683Z,100744.35
2023-01-29T12:04:57.308Z,100747.59
2023-01-29T12:07:25.734Z,100742.95
2023-01-29T12:09:56.123Z,100741.51
2023-01-29T12:12:31.999Z,100733.42
2023-01-29T12:15:26.084Z,100726.23
2023-01-29T12:17:58.586Z,100720.95
2023-01-29T12:20:41.237Z,100722.85
2023-01-29T12:23:25.896Z,100718.38
2023-01-29T12:26:09.925Z,100711.14
2023-01-29T12:28:53.402Z,100709.89
2023-01-29T12:31:27.897Z,100706.45
2023-01-29T12:34:08.980Z,100700.92
2023-01-29T12:36:53.384Z,100702.41
2023-01-29T12:39:22.035Z,100699.78
2023-01-29T12:41:52.950Z,100697.70
2023-01-29T12:44:42.489Z,100697.70
2023-01-29T12:47:36.186Z,100688.48
2023-01-29T12:50:24.737Z,100691.55
2023-01-29T12:52:55.631Z,100687.09
2023-01-29T12:55:33.690Z,100673.95
2023-01-29T12:58:04.836Z,100673.44
2023-01-29T13:00:35.913Z,100672.10
2023-01-29T13:03:38.660Z,100667.16
2023-01-29T13:06:10.553Z,100658.42
2023-01-29T13:08:45.208Z,100657.34
2023-01-29T13:11:20.609Z,100658.50
2023-01-29T13:13:59.989Z,100659.13
2023-01-29T13:16:37.567Z,100663.72
2023-01-29T13:19:14.993Z,100659.90
2023-01-29T13:21:44.724Z,100673.20
2023-01-29T13:24:17.611Z,100678.63
2023-01-29T13:26:47.749Z,100683.55
2023-01-29T13:29:30.407Z,100687.14
2023-01-29T13:32:01.007Z,100683.08
2023-01-29T13:34:35.225Z,100686.14
2023-01-29T13:37:22.100Z,100682.02
2023-01-29T13:39:53.448Z,100678.67
2023-01-29T13:42:35.342Z,100682.45
2023-01-29T13:45:07.133Z,100681.11
2023-01-29T13:47:40.435Z,100681.60
2023-01-29T13:50:30.635Z,100680.52
2023-01-29T13:53:02.333Z,100671.41
2023-01-29T13:55:36.571Z,100664.31
2023-01-29T13:58:31.889Z,100654.98
2023-01-29T14:01:01.454Z,100646.09
2023-01-29T14:03:39.925Z,100645.80
2023-01-29T14:06:39.107Z,100640.35
2023-01-29T14:09:32.528Z,100642.34
2023-01-29T14:12:01.215Z,100635.73
2023-01-29T14:14:47.815Z,100635.58
2023-01-29T14:17:17.431Z,100642.58
2023-01-29T14:19:54.815Z,100644.60
2023-01-29T14:22:27.254Z,100651.40
2023-01-29T14:25:00.629Z,100657.15
2023-01-29T14:27:30.194Z,100666.65
2023-01-29T14:30:02.738Z,100677.16
2023-01-29T14:32:30.773Z,100683.73
2023-01-29T14:35:05.253Z,100684.28
2023-01-29T14:37:40.899Z,100683.66
2023-01-29T14:40:11.745Z,100681.57
2023-01-29T14:42:52.464Z,100669.30
2023-01-29T14:45:26.257Z,100665.05
2023-01-29T14:48:10.931Z,100670.61
2023-01-29T14:50:46.339Z,100662.11
2023-01-29T14:53:21.144Z,100650.03
2023-01-29T14:56:15.049Z,100640.81
2023-01-29T14:58:57.290Z,100647.80
2023-01-29T15:01:31.071Z,100643.55
2023-01-29T15:04:04.905Z,100645.77
2023-01-29T15:06:47.339Z,100650.54
2023-01-29T15:09:36.897Z,100654.60
2023-01-29T15:12:33.857Z,100652.52
2023-01-29T15:15:14.612Z,100652.81
2023-01-29T15:17:57.127Z,100656.00
2023-01-29T15:20:36.943Z,100657.48
2023-01-29T15:23:26.079Z,100650.48
2023-01-29T15:26:03.650Z,100645.20
2023-01-29T15:28:33.946Z,100644.00
2023-01-29T15:31:04.578Z,100640.80
2023-01-29T15:33:35.317Z,100646.76
2023-01-29T15:36:08.691Z,100642.86
2023-01-29T15:38:37.046Z,100632.81
2023-01-29T15:41:20.406Z,100633.67
2023-01-29T15:43:57.541Z,100633.33
2023-01-29T15:46:32.780Z,100630.44
2023-01-29T15:49:08.530Z,100624.98
2023-01-29T15:51:36.422Z,100616.93
2023-01-29T15:54:10.155Z,100622.35
2023-01-29T15:56:43.494Z,100622.03
2023-01-29T15:59:21.703Z,100620.83
2023-01-29T16:01:49.597Z,100618.60
2023-01-29T16:04:33.600Z,100615.56
2023-01-29T16:07:03.716Z,100611.48
2023-01-29T16:09:32.137Z,100609.95
2023-01-29T16:12:00.361Z,100609.30
2023-01-29T16:14:30.280Z,100603.20
2023-01-29T16:17:30.532Z,100607.09
2023-01-29T16:20:00.355Z,100607.30
2023-01-29T16:22:37.188Z,100611.70
2023-01-29T16:25:08.657Z,100607.60
2023-01-29T16:27:36.513Z,100611.53
2023-01-29T16:30:07.262Z,100614.25
2023-01-29T16:32:35.567Z,100610.45
2023-01-29T16:35:03.970Z,100613.27
2023-01-29T16:37:36.529Z,100616.88
2023-01-29T16:40:26.807Z,100614.49
2023-01-29T16:43:16.778Z,100619.40
2023-01-29T16:46:06.064Z,100620.56
2023-01-29T16:48:35.140Z,100615.64
2023-01-29T16:51:14.380Z,100612.92
2023-01-29T16:53:57.305Z,100612.12
2023-01-29T16:56:28.415Z,100609.72
2023-01-29T16:58:57.599Z,100606.30
2023-01-29T17:01:28.771Z,100612.44
2023-01-29T17:04:13.419Z,100616.73
2023-01-29T17:06:44.802Z,100616.38
2023-01-29T17:09:30.316Z,100616.53
2023-01-29T17:12:02.562Z,100614.66
2023-01-29T17:14:33.003Z,100610.36
2023-01-29T17:17:16.740Z,100608.48
2023-01-29T17:19:44.781Z,100605.48
2023-01-29T17:22:15.535Z,100601.10
2023-01-29T17:24:43.888Z,100595.31
2023-01-29T17:27:20.006Z,100588.32
2023-01-29T17:29:48.341Z,100587.50
2023-01-29T17:32:18.991Z,100581.04
2023-01-29T17:34:47.151Z,100579.49
2023-01-29T17:37:16.566Z,100577.79
2023-01-29T17:39:48.295Z,100572.67
2023-01-29T17:42:16.675Z,100568.27
2023-01-29T17:44:45.445Z,100561.29
2023-01-29T17:47:15.178Z,100553.94
2023-01-29T17:49:43.402Z,100548.67
2023-01-29T17:52:11.628Z,100543.54
2023-01-29T17:54:39.581Z,100540.93
2023-01-29T17:57:07.539Z,100533.57
2023-01-29T17:59:35.713Z,100527.90
2023-01-29T18:02:03.676Z,100518.38
2023-01-29T18:04:31.853Z,100513.61
2023-01-29T18:06:59.833Z,100511.75
2023-01-29T18:09:28.105Z,100506.33
2023-01-29T18:11:55.889Z,100509.39
2023-01-29T18:14:23.836Z,100502.91
2023-01-29T18:16:51.666Z,100499.52
2023-01-29T18:19:23.224Z,100496.44
2023-01-29T18:21:51.656Z,100489.42
2023-01-29T18:24:21.039Z,100481.92
2023-01-29T18:26:51.154Z,100471.54
2023-01-29T18:29:19.255Z,100465.08
2023-01-29T18:31:50.540Z,100460.46
2023-01-29T18:34:18.355Z,100454.30
2023-01-29T18:36:48.227Z,100457.71
2023-01-29T18:39:17.035Z,100462.33
2023-01-29T18:41:44.860Z,100463.54
2023-01-29T18:44:12.886Z,100462.70
2023-01-29T18:46:40.815Z,100461.83
2023-01-29T18:49:08.739Z,100464.23
2023-01-29T18:51:36.611Z,100461.02
2023-01-29T18:54:04.743Z,100461.23
2023-01-29T18:56:32.596Z,100454.09
2023-01-29T18:59:00.574Z,100455.45
2023-01-29T19:01:28.831Z,100456.48
2023-01-29T19:03:59.242Z,100454.59
2023-01-29T19:06:27.466Z,100454.73
2023-01-29T19:08:55.311Z,100450.47
2023-01-29T19:11:23.230Z,100449.98
2023-01-29T19:13:51.095Z,100445.39
2023-01-29T19:16:18.938Z,100439.90
2023-01-29T19:18:46.887Z,100436.80
2023-01-29T19:21:16.200Z,100444.83
2023-01-29T19:23:45.041Z,100445.02
2023-01-29T19:26:13.775Z,100444.48
2023-01-29T19:28:42.358Z,100446.39
2023-01-29T19:31:11.530Z,100445.70
2023-01-29T19:33:39.433Z,100448.27
2023-01-29T19:36:07.893Z,100444.58
2023-01-29T19:38:38.742Z,100442.34
2023-01-29T19:41:06.968Z,100431.11
2023-01-29T19:43:35.310Z,100424.43
2023-01-29T19:46:03.249Z,100421.02
2023-01-29T19:48:31.084Z,100422.55
2023-01-29T19:51:01.616Z,100418.13
2023-01-29T19:53:30.189Z,100416.95
2023-01-29T19:56:03.843Z,100418.98
2023-01-29T19:58:32.516Z,100417.73
2023-01-29T20:01:05.722Z,100419.45
2023-01-29T20:03:34.520Z,100422.69
2023-01-29T20:06:03.988Z,100417.35
2023-01-29T20:08:33.467Z,100409.66
2023-01-29T20:11:02.709Z,100400.45
2023-01-29T20:13:30.560Z,100401.50
2023-01-29T20:16:03.018Z,100390.94
2023-01-29T20:18:32.052Z,100391.10
2023-01-29T20:21:05.561Z,100386.85
2023-01-29T20:23:38.087Z,100382.60
2023-01-29T20:26:08.748Z,100381.30
2023-01-29T20:28:36.967Z,100380.27
2023-01-29T20:31:06.800Z,100370.89
2023-01-29T20:33:37.034Z,100366.78
2023-01-29T20:36:10.149Z,100368.80
2023-01-29T20:38:38.537Z,100365.90
2023-01-29T20:41:14.080Z,100357.55
2023-01-29T20:43:42.926Z,100348.71
2023-01-29T20:46:11.708Z,100343.80
2023-01-29T20:48:40.050Z,100339.52
2023-01-29T20:51:13.049Z,100331.86
2023-01-29T20:53:43.312Z,100326.44
2023-01-29T20:56:12.024Z,100323.55
2023-01-29T20:58:43.314Z,100323.20
2023-01-29T21:01:13.442Z,100320.66
2023-01-29T21:03:42.125Z,100313.49
2023-01-29T21:06:11.298Z,100310.10
2023-01-29T21:08:40.510Z,100310.27
2023-01-29T21:11:09.406Z,100309.75
2023-01-29T21:13:37.731Z,100304.81
2023-01-29T21:16:06.613Z,100299.20
2023-01-29T21:18:34.503Z,100296.13
2023-01-29T21:21:02.397Z,100290.85
2023-01-29T21:23:30.514Z,100287.44
2023-01-29T21:26:06.262Z,100290.01
2023-01-29T21:28:35.160Z,100286.30
2023-01-29T21:31:10.685Z,100290.22
2023-01-29T21:33:38.837Z,100293.64
2023-01-29T21:36:07.631Z,100295.02
2023-01-29T21:38:36.186Z,100292.46
2023-01-29T21:41:06.892Z,100290.59
2023-01-29T21:43:34.707Z,100290.23
2023-01-29T21:46:05.243Z,100288.70
2023-01-29T21:48:33.224Z,100287.17
2023-01-29T21:51:01.058Z,100287.68
2023-01-29T21:53:28.943Z,100285.64
2023-01-29T21:56:00.157Z,100281.71
2023-01-29T21:58:29.346Z,100276.80
2023-01-29T22:01:18.480Z,100274.93
2023-01-29T22:03:47.409Z,100267.27
2023-01-29T22:06:15.779Z,100262.84
2023-01-29T22:08:43.615Z,100258.77
2023-01-29T22:11:12.135Z,100255.38
2023-01-29T22:13:39.878Z,100249.92
2023-01-29T22:16:08.047Z,100242.93
2023-01-29T22:18:35.917Z,100243.28
2023-01-29T22:21:03.790Z,100238.36
2023-01-29T22:23:32.439Z,100234.10
2023-01-29T22:26:09.492Z,100229.31
2023-01-29T22:28:37.792Z,100220.95
2023-01-29T22:31:05.990Z,100213.63
2023-01-29T22:33:34.389Z,100210.73
2023-01-29T22:36:02.573Z,100204.77
2023-01-29T22:38:31.129Z,100200.86
2023-01-29T22:41:00.540Z,100198.65
2023-01-29T22:43:29.497Z,100191.34
2023-01-29T22:45:57.404Z,100182.12
2023-01-29T22:48:25.565Z,100174.95
2023-01-29T22:51:09.444Z,100168.99
2023-01-29T22:53:52.654Z,100156.92
2023-01-29T22:56:25.325Z,100152.16
2023-01-29T22:58:55.106Z,100144.81
2023-01-29T23:01:25.760Z,100139.20
2023-01-29T23:03:53.947Z,100136.32
2023-01-29T23:06:22.063Z,100131.21
2023-01-29T23:08:51.229Z,100127.64
2023-01-29T23:11:21.549Z,100127.81
2023-01-29T23:13:52.050Z,100117.26
2023-01-29T23:16:23.099Z,100115.22
2023-01-29T23:18:53.624Z,100111.96
2023-01-29T23:21:24.952Z,100104.48
2023-01-29T23:23:55.469Z,100099.20
2023-01-29T23:26:42.883Z,100091.86
2023-01-29T23:29:10.780Z,100085.56
2023-01-29T23:31:39.071Z,100082.67
2023-01-29T23:34:06.944Z,100080.64
2023-01-29T23:44:09.348Z,100064.79
2023-01-29T23:46:37.311Z,100058.33
2023-01-29T23:49:05.405Z,100050.66
2023-01-29T23:51:33.342Z,100051.52
2023-01-29T23:54:01.153Z,100050.83
2023-01-29T23:56:28.981Z,100046.56
2023-01-29T23:58:58.046Z,100041.11
